sensor_id;sensor_type;location;lat;lon;timestamp;P1;durP1;ratioP1;P2;durP2;ratioP2
1837;SDS011;918;50.796;6.772;2023-02-21T00:02:16;27.20;;;20.40;;
1837;SDS011;918;50.796;6.772;2023-02-21T00:04:59;28.57;;;21.00;;
1837;SDS011;918;50.796;6.772;2023-02-21T00:07:43;26.20;;;21.10;;
1837;SDS011;918;50.796;6.772;2023-02-21T00:10:27;20.93;;;18.70;;
1837;SDS011;918;50.796;6.772;2023-02-21T00:13:11;22.20;;;19.20;;
1837;SDS011;918;50.796;6.772;2023-02-21T00:15:55;25.83;;;20.67;;
1837;SDS011;918;50.796;6.772;2023-02-21T00:18:39;25.87;;;20.27;;
1837;SDS011;918;50.796;6.772;2023-02-21T00:21:23;25.80;;;19.83;;
1837;SDS011;918;50.796;6.772;2023-02-21T00:24:07;29.53;;;22.70;;
1837;SDS011;918;50.796;6.772;2023-02-21T00:26:55;25.07;;;20.00;;
1837;SDS011;918;50.796;6.772;2023-02-21T00:29:39;25.17;;;19.13;;
1837;SDS011;918;50.796;6.772;2023-02-21T00:32:23;20.93;;;18.47;;
1837;SDS011;918;50.796;6.772;2023-02-21T00:35:07;24.73;;;20.00;;
1837;SDS011;918;50.796;6.772;2023-02-21T00:37:51;24.83;;;20.53;;
1837;SDS011;918;50.796;6.772;2023-02-21T00:40:35;24.90;;;20.60;;
1837;SDS011;918;50.796;6.772;2023-02-21T00:43:19;24.60;;;18.13;;
1837;SDS011;918;50.796;6.772;2023-02-21T00:46:03;22.53;;;20.10;;
1837;SDS011;918;50.796;6.772;2023-02-21T00:48:47;24.33;;;20.23;;
1837;SDS011;918;50.796;6.772;2023-02-21T00:51:31;23.07;;;19.50;;
1837;SDS011;918;50.796;6.772;2023-02-21T00:54:15;24.77;;;19.60;;
1837;SDS011;918;50.796;6.772;2023-02-21T00:56:58;24.00;;;19.47;;
1837;SDS011;918;50.796;6.772;2023-02-21T00:59:42;27.90;;;21.47;;
1837;SDS011;918;50.796;6.772;2023-02-21T01:02:26;22.13;;;19.70;;
1837;SDS011;918;50.796;6.772;2023-02-21T01:05:10;27.90;;;21.00;;
1837;SDS011;918;50.796;6.772;2023-02-21T01:07:54;24.80;;;18.90;;
1837;SDS011;918;50.796;6.772;2023-02-21T01:10:38;24.47;;;18.83;;
1837;SDS011;918;50.796;6.772;2023-02-21T01:13:21;25.30;;;19.17;;
1837;SDS011;918;50.796;6.772;2023-02-21T01:16:06;23.67;;;18.67;;
1837;SDS011;918;50.796;6.772;2023-02-21T01:18:50;23.93;;;18.43;;
1837;SDS011;918;50.796;6.772;2023-02-21T01:21:34;24.53;;;19.60;;
1837;SDS011;918;50.796;6.772;2023-02-21T01:24:18;25.10;;;18.33;;
1837;SDS011;918;50.796;6.772;2023-02-21T01:27:02;25.53;;;20.40;;
1837;SDS011;918;50.796;6.772;2023-02-21T01:29:46;26.03;;;19.10;;
1837;SDS011;918;50.796;6.772;2023-02-21T01:32:30;25.50;;;19.47;;
1837;SDS011;918;50.796;6.772;2023-02-21T01:35:14;23.10;;;18.13;;
1837;SDS011;918;50.796;6.772;2023-02-21T01:37:57;22.97;;;18.83;;
1837;SDS011;918;50.796;6.772;2023-02-21T01:40:42;24.10;;;18.90;;
1837;SDS011;918;50.796;6.772;2023-02-21T01:43:26;21.53;;;17.90;;
1837;SDS011;918;50.796;6.772;2023-02-21T01:46:16;24.40;;;18.60;;
1837;SDS011;918;50.796;6.772;2023-02-21T01:49:02;25.43;;;18.40;;
1837;SDS011;918;50.796;6.772;2023-02-21T01:51:48;25.37;;;18.60;;
1837;SDS011;918;50.796;6.772;2023-02-21T01:54:34;27.00;;;20.00;;
1837;SDS011;918;50.796;6.772;2023-02-21T01:57:20;29.87;;;20.47;;
1837;SDS011;918;50.796;6.772;2023-02-21T02:00:05;22.00;;;19.40;;
1837;SDS011;918;50.796;6.772;2023-02-21T02:02:58;25.13;;;20.13;;
1837;SDS011;918;50.796;6.772;2023-02-21T02:05:45;24.87;;;20.20;;
1837;SDS011;918;50.796;6.772;2023-02-21T02:08:32;23.20;;;18.67;;
1837;SDS011;918;50.796;6.772;2023-02-21T02:22:25;23.50;;;20.03;;
1837;SDS011;918;50.796;6.772;2023-02-21T02:30:44;35.63;;;20.07;;
1837;SDS011;918;50.796;6.772;2023-02-21T02:33:33;25.07;;;20.10;;
1837;SDS011;918;50.796;6.772;2023-02-21T02:36:32;23.27;;;19.93;;
1837;SDS011;918;50.796;6.772;2023-02-21T02:39:02;25.30;;;20.07;;
1837;SDS011;918;50.796;6.772;2023-02-21T02:41:56;24.20;;;20.20;;
1837;SDS011;918;50.796;6.772;2023-02-21T02:46:48;24.60;;;20.07;;
1837;SDS011;918;50.796;6.772;2023-02-21T02:49:18;24.13;;;19.83;;
1837;SDS011;918;50.796;6.772;2023-02-21T02:51:45;24.73;;;19.50;;
1837;SDS011;918;50.796;6.772;2023-02-21T02:54:10;27.47;;;20.67;;
1837;SDS011;918;50.796;6.772;2023-02-21T02:56:35;29.60;;;19.40;;
1837;SDS011;918;50.796;6.772;2023-02-21T02:59:08;24.47;;;18.80;;
1837;SDS011;918;50.796;6.772;2023-02-21T03:17:37;22.73;;;19.30;;
1837;SDS011;918;50.796;6.772;2023-02-21T03:20:05;26.10;;;20.07;;
1837;SDS011;918;50.796;6.772;2023-02-21T03:22:31;27.00;;;19.90;;
1837;SDS011;918;50.796;6.772;2023-02-21T03:24:57;24.40;;;19.20;;
1837;SDS011;918;50.796;6.772;2023-02-21T03:27:24;26.00;;;19.27;;
1837;SDS011;918;50.796;6.772;2023-02-21T03:29:50;24.87;;;20.10;;
1837;SDS011;918;50.796;6.772;2023-02-21T03:32:33;27.47;;;19.17;;
1837;SDS011;918;50.796;6.772;2023-02-21T03:35:03;27.80;;;21.03;;
1837;SDS011;918;50.796;6.772;2023-02-21T03:37:36;22.23;;;17.60;;
1837;SDS011;918;50.796;6.772;2023-02-21T03:40:08;24.60;;;19.60;;
1837;SDS011;918;50.796;6.772;2023-02-21T03:42:41;21.87;;;18.97;;
1837;SDS011;918;50.796;6.772;2023-02-21T03:45:07;26.10;;;20.17;;
1837;SDS011;918;50.796;6.772;2023-02-21T03:47:33;27.07;;;18.10;;
1837;SDS011;918;50.796;6.772;2023-02-21T03:49:58;22.60;;;18.60;;
1837;SDS011;918;50.796;6.772;2023-02-21T03:52:23;24.83;;;19.73;;
1837;SDS011;918;50.796;6.772;2023-02-21T03:54:48;24.73;;;18.50;;
1837;SDS011;918;50.796;6.772;2023-02-21T03:57:14;24.23;;;18.57;;
1837;SDS011;918;50.796;6.772;2023-02-21T03:59:39;24.87;;;17.37;;
1837;SDS011;918;50.796;6.772;2023-02-21T04:02:05;21.83;;;17.10;;
1837;SDS011;918;50.796;6.772;2023-02-21T04:04:30;21.43;;;16.80;;
1837;SDS011;918;50.796;6.772;2023-02-21T04:06:55;20.60;;;18.40;;
1837;SDS011;918;50.796;6.772;2023-02-21T04:09:21;21.77;;;16.70;;
1837;SDS011;918;50.796;6.772;2023-02-21T04:11:47;22.90;;;17.93;;
1837;SDS011;918;50.796;6.772;2023-02-21T04:14:12;24.07;;;18.10;;
1837;SDS011;918;50.796;6.772;2023-02-21T04:16:38;21.57;;;17.03;;
1837;SDS011;918;50.796;6.772;2023-02-21T04:19:03;19.67;;;16.10;;
1837;SDS011;918;50.796;6.772;2023-02-21T04:21:28;22.53;;;16.50;;
1837;SDS011;918;50.796;6.772;2023-02-21T04:23:54;20.00;;;17.23;;
1837;SDS011;918;50.796;6.772;2023-02-21T04:26:19;20.87;;;16.27;;
1837;SDS011;918;50.796;6.772;2023-02-21T04:28:45;22.90;;;17.57;;
1837;SDS011;918;50.796;6.772;2023-02-21T04:31:10;22.17;;;15.30;;
1837;SDS011;918;50.796;6.772;2023-02-21T04:33:39;23.00;;;16.37;;
1837;SDS011;918;50.796;6.772;2023-02-21T04:36:04;22.63;;;17.67;;
1837;SDS011;918;50.796;6.772;2023-02-21T04:38:29;21.10;;;17.50;;
1837;SDS011;918;50.796;6.772;2023-02-21T04:40:55;20.00;;;15.40;;
1837;SDS011;918;50.796;6.772;2023-02-21T04:43:20;18.87;;;14.93;;
1837;SDS011;918;50.796;6.772;2023-02-21T04:45:45;24.47;;;16.40;;
1837;SDS011;918;50.796;6.772;2023-02-21T04:48:10;24.10;;;16.27;;
1837;SDS011;918;50.796;6.772;2023-02-21T04:50:36;24.80;;;16.73;;
1837;SDS011;918;50.796;6.772;2023-02-21T04:53:01;22.37;;;17.60;;
1837;SDS011;918;50.796;6.772;2023-02-21T04:55:26;22.27;;;15.97;;
1837;SDS011;918;50.796;6.772;2023-02-21T04:57:51;17.70;;;14.37;;
1837;SDS011;918;50.796;6.772;2023-02-21T05:00:17;23.40;;;16.83;;
1837;SDS011;918;50.796;6.772;2023-02-21T05:02:43;22.87;;;16.00;;
1837;SDS011;918;50.796;6.772;2023-02-21T05:05:08;19.93;;;14.27;;
1837;SDS011;918;50.796;6.772;2023-02-21T05:07:34;23.07;;;16.57;;
1837;SDS011;918;50.796;6.772;2023-02-21T05:09:59;21.10;;;16.30;;
1837;SDS011;918;50.796;6.772;2023-02-21T05:12:24;22.97;;;14.90;;
1837;SDS011;918;50.796;6.772;2023-02-21T05:14:50;21.50;;;15.13;;
1837;SDS011;918;50.796;6.772;2023-02-21T05:17:15;21.93;;;14.13;;
1837;SDS011;918;50.796;6.772;2023-02-21T05:19:40;18.87;;;16.10;;
1837;SDS011;918;50.796;6.772;2023-02-21T05:22:06;20.13;;;14.47;;
1837;SDS011;918;50.796;6.772;2023-02-21T05:24:31;19.23;;;15.40;;
1837;SDS011;918;50.796;6.772;2023-02-21T05:26:57;19.53;;;14.67;;
1837;SDS011;918;50.796;6.772;2023-02-21T05:29:23;21.13;;;14.57;;
1837;SDS011;918;50.796;6.772;2023-02-21T05:31:48;26.03;;;16.47;;
1837;SDS011;918;50.796;6.772;2023-02-21T05:34:14;21.20;;;15.57;;
1837;SDS011;918;50.796;6.772;2023-02-21T05:36:40;17.13;;;13.93;;
1837;SDS011;918;50.796;6.772;2023-02-21T05:39:06;19.33;;;15.80;;
1837;SDS011;918;50.796;6.772;2023-02-21T05:41:32;20.13;;;15.90;;
1837;SDS011;918;50.796;6.772;2023-02-21T05:43:59;16.00;;;14.27;;
1837;SDS011;918;50.796;6.772;2023-02-21T05:46:28;18.43;;;15.53;;
1837;SDS011;918;50.796;6.772;2023-02-21T05:48:56;18.23;;;15.20;;
1837;SDS011;918;50.796;6.772;2023-02-21T05:51:22;22.27;;;15.60;;
1837;SDS011;918;50.796;6.772;2023-02-21T05:53:48;16.47;;;13.67;;
1837;SDS011;918;50.796;6.772;2023-02-21T05:56:14;18.80;;;14.67;;
1837;SDS011;918;50.796;6.772;2023-02-21T05:58:40;22.47;;;15.93;;
1837;SDS011;918;50.796;6.772;2023-02-21T06:01:05;24.17;;;16.60;;
1837;SDS011;918;50.796;6.772;2023-02-21T06:03:30;20.03;;;16.43;;
1837;SDS011;918;50.796;6.772;2023-02-21T06:05:56;23.37;;;15.90;;
1837;SDS011;918;50.796;6.772;2023-02-21T06:08:21;20.67;;;16.07;;
1837;SDS011;918;50.796;6.772;2023-02-21T06:10:46;19.50;;;16.53;;
1837;SDS011;918;50.796;6.772;2023-02-21T06:13:12;23.50;;;15.50;;
1837;SDS011;918;50.796;6.772;2023-02-21T06:15:37;17.13;;;14.30;;
1837;SDS011;918;50.796;6.772;2023-02-21T06:18:02;19.50;;;14.30;;
1837;SDS011;918;50.796;6.772;2023-02-21T06:20:28;23.93;;;16.83;;
1837;SDS011;918;50.796;6.772;2023-02-21T06:22:53;18.97;;;14.40;;
1837;SDS011;918;50.796;6.772;2023-02-21T06:25:18;18.40;;;14.20;;
1837;SDS011;918;50.796;6.772;2023-02-21T06:27:43;17.50;;;13.47;;
1837;SDS011;918;50.796;6.772;2023-02-21T06:30:09;20.00;;;14.30;;
1837;SDS011;918;50.796;6.772;2023-02-21T06:32:35;19.60;;;15.07;;
1837;SDS011;918;50.796;6.772;2023-02-21T06:35:00;19.53;;;14.90;;
1837;SDS011;918;50.796;6.772;2023-02-21T06:37:26;17.53;;;15.00;;
1837;SDS011;918;50.796;6.772;2023-02-21T06:39:52;17.50;;;14.30;;
1837;SDS011;918;50.796;6.772;2023-02-21T06:42:17;22.87;;;16.00;;
1837;SDS011;918;50.796;6.772;2023-02-21T06:44:43;19.20;;;15.67;;
1837;SDS011;918;50.796;6.772;2023-02-21T06:47:09;18.73;;;13.53;;
1837;SDS011;918;50.796;6.772;2023-02-21T06:49:34;21.90;;;17.77;;
1837;SDS011;918;50.796;6.772;2023-02-21T06:51:59;22.60;;;17.17;;
1837;SDS011;918;50.796;6.772;2023-02-21T06:54:25;20.77;;;16.00;;
1837;SDS011;918;50.796;6.772;2023-02-21T06:56:50;19.80;;;14.57;;
1837;SDS011;918;50.796;6.772;2023-02-21T06:59:15;19.83;;;14.03;;
1837;SDS011;918;50.796;6.772;2023-02-21T07:01:40;21.33;;;15.90;;
1837;SDS011;918;50.796;6.772;2023-02-21T07:04:06;21.63;;;16.67;;
1837;SDS011;918;50.796;6.772;2023-02-21T07:06:31;20.60;;;14.63;;
1837;SDS011;918;50.796;6.772;2023-02-21T07:08:57;19.40;;;15.10;;
1837;SDS011;918;50.796;6.772;2023-02-21T07:11:22;19.57;;;14.50;;
1837;SDS011;918;50.796;6.772;2023-02-21T07:13:51;20.43;;;15.23;;
1837;SDS011;918;50.796;6.772;2023-02-21T07:16:17;21.87;;;14.67;;
1837;SDS011;918;50.796;6.772;2023-02-21T07:18:43;19.97;;;14.50;;
1837;SDS011;918;50.796;6.772;2023-02-21T07:21:09;20.70;;;15.50;;
1837;SDS011;918;50.796;6.772;2023-02-21T07:23:35;19.20;;;14.37;;
1837;SDS011;918;50.796;6.772;2023-02-21T07:26:00;22.73;;;15.33;;
1837;SDS011;918;50.796;6.772;2023-02-21T07:28:25;19.47;;;16.00;;
1837;SDS011;918;50.796;6.772;2023-02-21T07:30:51;20.80;;;16.77;;
1837;SDS011;918;50.796;6.772;2023-02-21T07:33:16;21.27;;;16.63;;
1837;SDS011;918;50.796;6.772;2023-02-21T07:35:41;21.77;;;16.40;;
1837;SDS011;918;50.796;6.772;2023-02-21T07:38:07;19.37;;;15.93;;
1837;SDS011;918;50.796;6.772;2023-02-21T07:40:32;17.80;;;14.93;;
1837;SDS011;918;50.796;6.772;2023-02-21T07:42:57;16.90;;;14.60;;
1837;SDS011;918;50.796;6.772;2023-02-21T07:45:22;19.60;;;14.73;;
1837;SDS011;918;50.796;6.772;2023-02-21T07:47:48;19.57;;;15.73;;
1837;SDS011;918;50.796;6.772;2023-02-21T07:50:15;19.20;;;15.47;;
1837;SDS011;918;50.796;6.772;2023-02-21T07:52:41;21.30;;;15.07;;
1837;SDS011;918;50.796;6.772;2023-02-21T07:55:06;20.77;;;16.20;;
1837;SDS011;918;50.796;6.772;2023-02-21T07:57:32;25.60;;;18.10;;
1837;SDS011;918;50.796;6.772;2023-02-21T07:59:57;23.27;;;18.37;;
1837;SDS011;918;50.796;6.772;2023-02-21T08:02:25;29.20;;;21.10;;
1837;SDS011;918;50.796;6.772;2023-02-21T08:04:51;24.33;;;18.90;;
1837;SDS011;918;50.796;6.772;2023-02-21T08:07:17;29.13;;;21.47;;
1837;SDS011;918;50.796;6.772;2023-02-21T08:09:42;27.30;;;22.60;;
1837;SDS011;918;50.796;6.772;2023-02-21T08:12:08;27.97;;;21.33;;
1837;SDS011;918;50.796;6.772;2023-02-21T08:14:33;25.03;;;19.67;;
1837;SDS011;918;50.796;6.772;2023-02-21T08:16:58;31.03;;;22.40;;
1837;SDS011;918;50.796;6.772;2023-02-21T08:19:24;31.80;;;23.00;;
1837;SDS011;918;50.796;6.772;2023-02-21T08:21:49;30.40;;;21.90;;
1837;SDS011;918;50.796;6.772;2023-02-21T08:24:15;27.27;;;21.63;;
1837;SDS011;918;50.796;6.772;2023-02-21T08:26:41;26.90;;;21.13;;
1837;SDS011;918;50.796;6.772;2023-02-21T08:29:09;32.40;;;22.90;;
1837;SDS011;918;50.796;6.772;2023-02-21T08:31:35;30.33;;;22.80;;
1837;SDS011;918;50.796;6.772;2023-02-21T08:34:01;32.57;;;22.07;;
1837;SDS011;918;50.796;6.772;2023-02-21T08:36:30;28.90;;;21.57;;
1837;SDS011;918;50.796;6.772;2023-02-21T08:38:56;29.47;;;22.00;;
1837;SDS011;918;50.796;6.772;2023-02-21T08:41:21;29.00;;;22.23;;
1837;SDS011;918;50.796;6.772;2023-02-21T08:43:46;32.73;;;21.97;;
1837;SDS011;918;50.796;6.772;2023-02-21T08:46:13;31.13;;;22.80;;
1837;SDS011;918;50.796;6.772;2023-02-21T08:48:39;26.80;;;20.63;;
1837;SDS011;918;50.796;6.772;2023-02-21T08:51:04;28.60;;;22.30;;
1837;SDS011;918;50.796;6.772;2023-02-21T08:53:29;33.53;;;22.73;;
1837;SDS011;918;50.796;6.772;2023-02-21T08:55:55;27.13;;;19.57;;
1837;SDS011;918;50.796;6.772;2023-02-21T08:58:20;24.10;;;18.83;;
1837;SDS011;918;50.796;6.772;2023-02-21T09:00:45;28.70;;;21.53;;
1837;SDS011;918;50.796;6.772;2023-02-21T09:03:11;26.07;;;20.03;;
1837;SDS011;918;50.796;6.772;2023-02-21T09:05:37;27.60;;;21.63;;
1837;SDS011;918;50.796;6.772;2023-02-21T09:08:02;30.77;;;21.80;;
1837;SDS011;918;50.796;6.772;2023-02-21T09:10:29;25.23;;;20.03;;
1837;SDS011;918;50.796;6.772;2023-02-21T09:12:57;30.67;;;20.07;;
1837;SDS011;918;50.796;6.772;2023-02-21T09:15:23;31.40;;;21.47;;
1837;SDS011;918;50.796;6.772;2023-02-21T09:17:48;27.30;;;20.13;;
1837;SDS011;918;50.796;6.772;2023-02-21T09:20:16;28.47;;;20.60;;
1837;SDS011;918;50.796;6.772;2023-02-21T09:22:43;31.23;;;20.60;;
1837;SDS011;918;50.796;6.772;2023-02-21T09:25:09;33.00;;;22.30;;
1837;SDS011;918;50.796;6.772;2023-02-21T09:27:36;28.10;;;20.43;;
1837;SDS011;918;50.796;6.772;2023-02-21T09:30:03;28.27;;;19.87;;
1837;SDS011;918;50.796;6.772;2023-02-21T09:32:30;29.37;;;22.00;;
1837;SDS011;918;50.796;6.772;2023-02-21T09:34:56;26.00;;;19.07;;
1837;SDS011;918;50.796;6.772;2023-02-21T09:37:21;30.43;;;20.43;;
1837;SDS011;918;50.796;6.772;2023-02-21T09:39:47;23.73;;;19.20;;
1837;SDS011;918;50.796;6.772;2023-02-21T09:42:14;27.97;;;18.73;;
1837;SDS011;918;50.796;6.772;2023-02-21T09:44:40;28.50;;;22.23;;
1837;SDS011;918;50.796;6.772;2023-02-21T09:47:06;28.53;;;21.53;;
1837;SDS011;918;50.796;6.772;2023-02-21T09:49:32;26.87;;;20.07;;
1837;SDS011;918;50.796;6.772;2023-02-21T09:52:00;26.60;;;22.20;;
1837;SDS011;918;50.796;6.772;2023-02-21T09:54:30;26.63;;;19.43;;
1837;SDS011;918;50.796;6.772;2023-02-21T09:56:58;26.90;;;19.80;;
1837;SDS011;918;50.796;6.772;2023-02-21T09:59:25;24.67;;;21.27;;
1837;SDS011;918;50.796;6.772;2023-02-21T10:07:10;23.90;;;18.47;;
1837;SDS011;918;50.796;6.772;2023-02-21T10:09:57;21.97;;;18.27;;
1837;SDS011;918;50.796;6.772;2023-02-21T10:12:25;24.37;;;18.07;;
1837;SDS011;918;50.796;6.772;2023-02-21T10:20:15;20.67;;;17.50;;
1837;SDS011;918;50.796;6.772;2023-02-21T10:22:47;22.97;;;18.40;;
1837;SDS011;918;50.796;6.772;2023-02-21T10:25:19;24.50;;;19.43;;
1837;SDS011;918;50.796;6.772;2023-02-21T10:27:47;24.67;;;17.93;;
1837;SDS011;918;50.796;6.772;2023-02-21T10:30:33;24.83;;;17.70;;
1837;SDS011;918;50.796;6.772;2023-02-21T10:32:59;21.27;;;17.70;;
1837;SDS011;918;50.796;6.772;2023-02-21T10:35:33;20.80;;;15.17;;
1837;SDS011;918;50.796;6.772;2023-02-21T10:38:00;18.97;;;15.23;;
1837;SDS011;918;50.796;6.772;2023-02-21T10:40:38;17.23;;;15.27;;
1837;SDS011;918;50.796;6.772;2023-02-21T10:45:39;19.17;;;17.10;;
1837;SDS011;918;50.796;6.772;2023-02-21T10:48:12;18.60;;;15.67;;
1837;SDS011;918;50.796;6.772;2023-02-21T10:50:42;20.60;;;16.07;;
1837;SDS011;918;50.796;6.772;2023-02-21T10:53:25;19.43;;;15.17;;
1837;SDS011;918;50.796;6.772;2023-02-21T10:56:05;21.57;;;16.60;;
1837;SDS011;918;50.796;6.772;2023-02-21T11:01:22;23.83;;;17.27;;
1837;SDS011;918;50.796;6.772;2023-02-21T11:03:57;24.73;;;17.93;;
1837;SDS011;918;50.796;6.772;2023-02-21T11:06:31;20.43;;;17.27;;
1837;SDS011;918;50.796;6.772;2023-02-21T11:08:57;22.83;;;16.97;;
1837;SDS011;918;50.796;6.772;2023-02-21T11:11:36;20.67;;;17.00;;
1837;SDS011;918;50.796;6.772;2023-02-21T11:14:25;24.57;;;18.50;;
1837;SDS011;918;50.796;6.772;2023-02-21T11:22:20;22.60;;;18.43;;
1837;SDS011;918;50.796;6.772;2023-02-21T11:24:48;23.83;;;18.10;;
1837;SDS011;918;50.796;6.772;2023-02-21T11:27:16;25.00;;;19.80;;
1837;SDS011;918;50.796;6.772;2023-02-21T11:29:42;21.33;;;18.93;;
1837;SDS011;918;50.796;6.772;2023-02-21T11:32:12;22.23;;;18.30;;
1837;SDS011;918;50.796;6.772;2023-02-21T11:34:45;26.63;;;17.93;;
1837;SDS011;918;50.796;6.772;2023-02-21T11:37:12;26.20;;;19.43;;
1837;SDS011;918;50.796;6.772;2023-02-21T11:39:38;24.27;;;18.63;;
1837;SDS011;918;50.796;6.772;2023-02-21T11:42:21;23.17;;;19.30;;
1837;SDS011;918;50.796;6.772;2023-02-21T11:44:49;21.73;;;17.63;;
1837;SDS011;918;50.796;6.772;2023-02-21T11:47:31;24.07;;;19.67;;
1837;SDS011;918;50.796;6.772;2023-02-21T11:50:04;21.60;;;18.90;;
1837;SDS011;918;50.796;6.772;2023-02-21T11:52:37;23.30;;;19.33;;
1837;SDS011;918;50.796;6.772;2023-02-21T11:55:11;23.97;;;18.00;;
1837;SDS011;918;50.796;6.772;2023-02-21T12:00:43;24.03;;;18.60;;
1837;SDS011;918;50.796;6.772;2023-02-21T12:03:28;23.63;;;18.43;;
1837;SDS011;918;50.796;6.772;2023-02-21T12:06:23;28.30;;;18.60;;
1837;SDS011;918;50.796;6.772;2023-02-21T12:12:14;22.60;;;17.93;;
1837;SDS011;918;50.796;6.772;2023-02-21T12:15:05;19.07;;;16.27;;
1837;SDS011;918;50.796;6.772;2023-02-21T12:20:57;24.00;;;17.23;;
1837;SDS011;918;50.796;6.772;2023-02-21T12:24:06;20.97;;;16.90;;
1837;SDS011;918;50.796;6.772;2023-02-21T12:31:58;22.13;;;16.30;;
1837;SDS011;918;50.796;6.772;2023-02-21T12:37:23;22.47;;;18.17;;
1837;SDS011;918;50.796;6.772;2023-02-21T12:40:01;23.30;;;18.00;;
1837;SDS011;918;50.796;6.772;2023-02-21T12:42:50;23.40;;;18.67;;
1837;SDS011;918;50.796;6.772;2023-02-21T12:51:06;22.03;;;17.37;;
1837;SDS011;918;50.796;6.772;2023-02-21T12:53:38;21.10;;;18.80;;
1837;SDS011;918;50.796;6.772;2023-02-21T12:56:11;20.47;;;17.40;;
1837;SDS011;918;50.796;6.772;2023-02-21T12:58:42;24.50;;;17.17;;
1837;SDS011;918;50.796;6.772;2023-02-21T13:01:12;25.10;;;18.90;;
1837;SDS011;918;50.796;6.772;2023-02-21T13:06:33;21.07;;;17.67;;
1837;SDS011;918;50.796;6.772;2023-02-21T13:14:44;21.93;;;17.70;;
1837;SDS011;918;50.796;6.772;2023-02-21T13:17:12;23.70;;;18.43;;
1837;SDS011;918;50.796;6.772;2023-02-21T13:19:40;19.23;;;16.73;;
1837;SDS011;918;50.796;6.772;2023-02-21T13:25:40;19.70;;;16.60;;
1837;SDS011;918;50.796;6.772;2023-02-21T13:28:17;20.83;;;18.20;;
1837;SDS011;918;50.796;6.772;2023-02-21T13:30:50;22.20;;;17.17;;
1837;SDS011;918;50.796;6.772;2023-02-21T13:33:23;20.07;;;16.90;;
1837;SDS011;918;50.796;6.772;2023-02-21T13:35:51;23.07;;;17.70;;
1837;SDS011;918;50.796;6.772;2023-02-21T13:38:17;20.77;;;17.10;;
1837;SDS011;918;50.796;6.772;2023-02-21T13:40:54;17.93;;;15.67;;
1837;SDS011;918;50.796;6.772;2023-02-21T13:43:34;19.87;;;16.90;;
1837;SDS011;918;50.796;6.772;2023-02-21T13:49:35;20.80;;;17.57;;
1837;SDS011;918;50.796;6.772;2023-02-21T13:51:51;20.73;;;17.27;;
1837;SDS011;918;50.796;6.772;2023-02-21T13:54:21;21.87;;;18.17;;
1837;SDS011;918;50.796;6.772;2023-02-21T13:56:47;22.67;;;18.63;;
1837;SDS011;918;50.796;6.772;2023-02-21T14:01:48;20.23;;;16.87;;
1837;SDS011;918;50.796;6.772;2023-02-21T14:04:48;25.13;;;17.83;;
1837;SDS011;918;50.796;6.772;2023-02-21T14:07:39;19.27;;;17.00;;
1837;SDS011;918;50.796;6.772;2023-02-21T14:10:22;22.00;;;17.80;;
1837;SDS011;918;50.796;6.772;2023-02-21T14:12:52;22.77;;;16.07;;
1837;SDS011;918;50.796;6.772;2023-02-21T14:15:18;21.97;;;17.07;;
1837;SDS011;918;50.796;6.772;2023-02-21T14:17:45;23.30;;;17.30;;
1837;SDS011;918;50.796;6.772;2023-02-21T14:20:15;20.90;;;17.77;;
1837;SDS011;918;50.796;6.772;2023-02-21T14:22:40;19.50;;;16.30;;
1837;SDS011;918;50.796;6.772;2023-02-21T14:25:14;19.07;;;17.00;;
1837;SDS011;918;50.796;6.772;2023-02-21T14:27:41;19.67;;;15.40;;
1837;SDS011;918;50.796;6.772;2023-02-21T14:32:36;19.80;;;16.00;;
1837;SDS011;918;50.796;6.772;2023-02-21T14:45:34;19.57;;;17.00;;
1837;SDS011;918;50.796;6.772;2023-02-21T15:05:21;21.60;;;17.40;;
1837;SDS011;918;50.796;6.772;2023-02-21T15:10:14;27.67;;;20.60;;
1837;SDS011;918;50.796;6.772;2023-02-21T15:13:02;25.83;;;21.10;;
1837;SDS011;918;50.796;6.772;2023-02-21T15:15:29;30.83;;;21.90;;
1837;SDS011;918;50.796;6.772;2023-02-21T15:18:40;28.93;;;22.87;;
1837;SDS011;918;50.796;6.772;2023-02-21T15:23:34;27.60;;;22.43;;
1837;SDS011;918;50.796;6.772;2023-02-21T15:26:01;27.80;;;21.27;;
1837;SDS011;918;50.796;6.772;2023-02-21T15:28:41;23.83;;;18.77;;
1837;SDS011;918;50.796;6.772;2023-02-21T15:31:07;25.60;;;21.70;;
1837;SDS011;918;50.796;6.772;2023-02-21T15:33:34;25.97;;;20.30;;
1837;SDS011;918;50.796;6.772;2023-02-21T15:36:02;23.87;;;18.23;;
1837;SDS011;918;50.796;6.772;2023-02-21T15:38:46;21.27;;;17.80;;
1837;SDS011;918;50.796;6.772;2023-02-21T15:43:43;32.70;;;24.77;;
1837;SDS011;918;50.796;6.772;2023-02-21T15:46:11;34.57;;;25.77;;
1837;SDS011;918;50.796;6.772;2023-02-21T15:48:40;34.20;;;24.40;;
1837;SDS011;918;50.796;6.772;2023-02-21T15:51:06;32.83;;;24.93;;
1837;SDS011;918;50.796;6.772;2023-02-21T15:53:33;34.73;;;27.93;;
1837;SDS011;918;50.796;6.772;2023-02-21T15:56:15;39.47;;;29.07;;
1837;SDS011;918;50.796;6.772;2023-02-21T15:59:01;36.87;;;28.03;;
1837;SDS011;918;50.796;6.772;2023-02-21T16:01:31;35.97;;;28.03;;
1837;SDS011;918;50.796;6.772;2023-02-21T16:04:13;36.50;;;27.47;;
1837;SDS011;918;50.796;6.772;2023-02-21T16:06:43;34.57;;;28.87;;
1837;SDS011;918;50.796;6.772;2023-02-21T16:11:39;34.53;;;28.10;;
1837;SDS011;918;50.796;6.772;2023-02-21T16:16:50;36.57;;;28.90;;
1837;SDS011;918;50.796;6.772;2023-02-21T16:19:31;41.50;;;28.03;;
1837;SDS011;918;50.796;6.772;2023-02-21T16:24:46;40.67;;;27.97;;
1837;SDS011;918;50.796;6.772;2023-02-21T16:27:13;38.30;;;27.73;;
1837;SDS011;918;50.796;6.772;2023-02-21T16:29:40;35.20;;;25.20;;
1837;SDS011;918;50.796;6.772;2023-02-21T16:32:05;39.00;;;27.70;;
1837;SDS011;918;50.796;6.772;2023-02-21T16:34:33;37.30;;;27.30;;
1837;SDS011;918;50.796;6.772;2023-02-21T16:37:01;33.53;;;26.10;;
1837;SDS011;918;50.796;6.772;2023-02-21T16:39:27;33.40;;;24.17;;
1837;SDS011;918;50.796;6.772;2023-02-21T16:41:54;27.63;;;22.40;;
1837;SDS011;918;50.796;6.772;2023-02-21T16:44:19;28.10;;;21.93;;
1837;SDS011;918;50.796;6.772;2023-02-21T16:46:45;35.93;;;23.97;;
1837;SDS011;918;50.796;6.772;2023-02-21T16:49:10;26.17;;;22.13;;
1837;SDS011;918;50.796;6.772;2023-02-21T16:51:36;31.10;;;22.07;;
1837;SDS011;918;50.796;6.772;2023-02-21T16:54:05;29.93;;;22.50;;
1837;SDS011;918;50.796;6.772;2023-02-21T16:56:30;31.53;;;22.20;;
1837;SDS011;918;50.796;6.772;2023-02-21T16:58:55;32.93;;;22.90;;
1837;SDS011;918;50.796;6.772;2023-02-21T17:01:25;32.27;;;24.13;;
1837;SDS011;918;50.796;6.772;2023-02-21T17:03:52;32.10;;;23.90;;
1837;SDS011;918;50.796;6.772;2023-02-21T17:06:21;32.10;;;24.43;;
1837;SDS011;918;50.796;6.772;2023-02-21T17:08:48;34.30;;;23.83;;
1837;SDS011;918;50.796;6.772;2023-02-21T17:11:13;36.83;;;24.93;;
1837;SDS011;918;50.796;6.772;2023-02-21T17:13:38;30.47;;;23.87;;
1837;SDS011;918;50.796;6.772;2023-02-21T17:16:04;37.80;;;24.00;;
1837;SDS011;918;50.796;6.772;2023-02-21T17:18:29;36.93;;;26.87;;
1837;SDS011;918;50.796;6.772;2023-02-21T17:20:55;38.97;;;28.27;;
1837;SDS011;918;50.796;6.772;2023-02-21T17:23:21;42.20;;;28.63;;
1837;SDS011;918;50.796;6.772;2023-02-21T17:25:46;37.40;;;27.47;;
1837;SDS011;918;50.796;6.772;2023-02-21T17:28:12;37.83;;;27.57;;
1837;SDS011;918;50.796;6.772;2023-02-21T17:30:37;39.10;;;30.47;;
1837;SDS011;918;50.796;6.772;2023-02-21T17:33:02;37.87;;;29.90;;
1837;SDS011;918;50.796;6.772;2023-02-21T17:35:29;42.30;;;29.80;;
1837;SDS011;918;50.796;6.772;2023-02-21T17:37:54;38.93;;;29.63;;
1837;SDS011;918;50.796;6.772;2023-02-21T17:40:20;43.80;;;30.90;;
1837;SDS011;918;50.796;6.772;2023-02-21T17:42:46;41.93;;;30.23;;
1837;SDS011;918;50.796;6.772;2023-02-21T17:45:11;49.00;;;30.73;;
1837;SDS011;918;50.796;6.772;2023-02-21T17:47:37;44.77;;;30.20;;